TimeCST,TemperatureF,Dew PointF,Humidity,Sea Level PressureIn,VisibilityMPH,Wind Direction,Wind SpeedMPH,Gust SpeedMPH,PrecipitationIn,Events,Conditions,WindDirDegrees,DateUTC
12:15 AM,28.4,21.2,74,30.43,-9999.0,Calm,Calm,-,N/A,,Overcast,0,2013-01-04 06:15:00
12:35 AM,28.4,21.2,74,30.43,-9999.0,West,3.5,-,N/A,,Overcast,280,2013-01-04 06:35:00
12:55 AM,28.4,23.0,80,30.43,-9999.0,Calm,Calm,-,N/A,,Overcast,0,2013-01-04 06:55:00
1:35 AM,28.4,21.2,74,30.44,-9999.0,NW,4.6,-,N/A,,Overcast,320,2013-01-04 07:35:00
1:55 AM,28.4,21.2,74,30.44,-9999.0,NNW,4.6,-,N/A,,Mostly Cloudy,340,2013-01-04 07:55:00
2:15 AM,26.6,21.2,80,30.44,-9999.0,NNW,3.5,-,N/A,,Scattered Clouds,330,2013-01-04 08:15:00
2:55 AM,26.6,19.4,74,30.44,-9999.0,Calm,Calm,-,N/A,,Clear,0,2013-01-04 08:55:00
3:15 AM,26.6,21.2,80,30.43,-9999.0,Calm,Calm,-,N/A,,Clear,0,2013-01-04 09:15:00
3:35 AM,26.6,21.2,80,30.43,-9999.0,Calm,Calm,-,N/A,,Clear,0,2013-01-04 09:35:00
3:55 AM,24.8,19.4,80,30.43,-9999.0,Calm,Calm,-,N/A,,Clear,0,2013-01-04 09:55:00
4:15 AM,23.0,17.6,80,30.43,-9999.0,Calm,Calm,-,N/A,,Clear,0,2013-01-04 10:15:00
4:35 AM,24.8,19.4,80,30.42,-9999.0,Calm,Calm,-,N/A,,Clear,0,2013-01-04 10:35:00
4:55 AM,24.8,19.4,80,30.43,-9999.0,Calm,Calm,-,N/A,,Clear,0,2013-01-04 10:55:00
5:15 AM,24.8,19.4,80,30.44,-9999.0,Calm,Calm,-,N/A,,Clear,0,2013-01-04 11:15:00
5:55 AM,21.2,15.8,80,30.44,-9999.0,Calm,Calm,-,N/A,,Clear,0,2013-01-04 11:55:00
6:15 AM,21.2,17.6,86,30.45,-9999.0,Calm,Calm,-,N/A,,Unknown,0,2013-01-04 12:15:00
6:35 AM,21.2,17.6,86,30.46,-9999.0,SSW,4.6,-,N/A,,Unknown,200,2013-01-04 12:35:00
6:55 AM,21.2,17.6,86,30.46,-9999.0,Calm,Calm,-,N/A,,Unknown,0,2013-01-04 12:55:00
7:35 AM,21.2,17.6,86,30.46,-9999.0,SSE,3.5,-,N/A,,Unknown,160,2013-01-04 13:35:00
7:55 AM,23.0,17.6,80,30.46,-9999.0,Calm,Calm,-,N/A,,Clear,0,2013-01-04 13:55:00
8:15 AM,24.8,19.4,80,30.46,-9999.0,Calm,Calm,-,N/A,,Clear,0,2013-01-04 14:15:00
8:35 AM,26.6,21.2,80,30.47,-9999.0,Calm,Calm,-,N/A,,Clear,0,2013-01-04 14:35:00
8:55 AM,28.4,23.0,80,30.46,-9999.0,Calm,Calm,-,N/A,,Clear,0,2013-01-04 14:55:00
9:35 AM,32.0,21.2,64,30.47,-9999.0,South,4.6,-,N/A,,Clear,170,2013-01-04 15:35:00
9:55 AM,35.6,21.2,56,30.48,-9999.0,South,3.5,-,N/A,,Clear,180,2013-01-04 15:55:00
10:15 AM,35.6,21.2,56,30.48,-9999.0,South,4.6,-,N/A,,Clear,180,2013-01-04 16:15:00
10:35 AM,37.4,19.4,48,30.48,-9999.0,SSW,4.6,-,N/A,,Clear,200,2013-01-04 16:35:00
10:55 AM,37.4,21.2,52,30.48,-9999.0,SSW,4.6,-,N/A,,Clear,210,2013-01-04 16:55:00
11:35 AM,41.0,23.0,49,30.46,-9999.0,SSW,6.9,-,N/A,,Clear,200,2013-01-04 17:35:00
11:55 AM,42.8,21.2,42,30.45,-9999.0,WSW,8.1,-,N/A,,Clear,240,2013-01-04 17:55:00
12:15 PM,42.8,21.2,42,30.44,-9999.0,WSW,6.9,-,N/A,,Clear,250,2013-01-04 18:15:00
12:35 PM,44.6,21.2,39,30.42,-9999.0,WSW,8.1,-,N/A,,Clear,240,2013-01-04 18:35:00
1:15 PM,46.4,21.2,37,30.40,-9999.0,WSW,11.5,-,N/A,,Clear,240,2013-01-04 19:15:00
1:35 PM,46.4,21.2,37,30.39,-9999.0,West,6.9,-,N/A,,Clear,280,2013-01-04 19:35:00
1:55 PM,46.4,21.2,37,30.38,-9999.0,WSW,10.4,-,N/A,,Clear,240,2013-01-04 19:55:00
2:15 PM,46.4,21.2,37,30.38,-9999.0,WSW,10.4,-,N/A,,Partly Cloudy,240,2013-01-04 20:15:00
2:35 PM,46.4,21.2,37,30.37,-9999.0,WSW,11.5,-,N/A,,Clear,250,2013-01-04 20:35:00
3:15 PM,46.4,21.2,37,30.37,-9999.0,West,9.2,-,N/A,,Clear,260,2013-01-04 21:15:00
3:55 PM,46.4,21.2,37,30.37,-9999.0,WSW,9.2,-,N/A,,Clear,240,2013-01-04 21:55:00
4:15 PM,46.4,19.4,34,30.37,-9999.0,SW,6.9,-,N/A,,Clear,220,2013-01-04 22:15:00
4:35 PM,42.8,23.0,46,30.36,-9999.0,South,10.4,-,N/A,,Clear,190,2013-01-04 22:35:00
5:16 PM,39.2,21.2,49,30.37,-9999.0,SW,9.2,-,N/A,,Clear,220,2013-01-04 23:16:00
5:55 PM,35.6,19.4,52,30.37,-9999.0,South,5.8,-,N/A,,Clear,190,2013-01-04 23:55:00
6:35 PM,33.8,19.4,56,30.37,-9999.0,SSW,5.8,-,N/A,,Unknown,200,2013-01-05 00:35:00
6:55 PM,35.6,19.4,52,30.37,-9999.0,South,6.9,-,N/A,,Clear,190,2013-01-05 00:55:00
7:15 PM,33.8,19.4,56,30.38,-9999.0,South,5.8,-,N/A,,Clear,180,2013-01-05 01:15:00
7:35 PM,35.6,19.4,52,30.38,-9999.0,South,6.9,-,N/A,,Clear,180,2013-01-05 01:35:00
7:55 PM,35.6,19.4,52,30.38,-9999.0,South,4.6,-,N/A,,Clear,170,2013-01-05 01:55:00
8:35 PM,33.8,19.4,56,30.37,-9999.0,South,6.9,-,N/A,,Clear,170,2013-01-05 02:35:00
8:55 PM,33.8,19.4,56,30.37,-9999.0,SSE,5.8,-,N/A,,Clear,160,2013-01-05 02:55:00
9:15 PM,32.0,19.4,60,30.37,-9999.0,South,4.6,-,N/A,,Clear,170,2013-01-05 03:15:00
9:35 PM,33.8,19.4,56,30.36,-9999.0,South,4.6,-,N/A,,Clear,170,2013-01-05 03:35:00
9:55 PM,30.2,17.6,60,30.37,-9999.0,South,4.6,-,N/A,,Clear,190,2013-01-05 03:55:00
10:15 PM,30.2,17.6,60,30.37,-9999.0,South,5.8,-,N/A,,Clear,190,2013-01-05 04:15:00
10:35 PM,33.8,19.4,56,30.35,-9999.0,SSE,3.5,-,N/A,,Clear,160,2013-01-05 04:35:00
10:55 PM,33.8,19.4,56,30.35,-9999.0,South,3.5,-,N/A,,Clear,170,2013-01-05 04:55:00
11:15 PM,30.2,17.6,60,30.35,-9999.0,South,4.6,-,N/A,,Clear,190,2013-01-05 05:15:00
11:35 PM,30.2,19.4,64,30.35,-9999.0,South,3.5,-,N/A,,Clear,180,2013-01-05 05:35:00
11:55 PM,30.2,19.4,64,30.35,-9999.0,South,3.5,-,N/A,,Clear,180,2013-01-05 05:55:00